createdAt,value
2017-03-13T00:00:32.742Z,61.46
2017-03-13T00:01:28.653Z,61.61
2017-03-13T00:02:33.923Z,61.85
2017-03-13T00:03:33.887Z,61.70
2017-03-13T00:04:32.196Z,61.97
2017-03-13T00:05:31.881Z,61.50
2017-03-13T00:06:27.941Z,61.45
2017-03-13T00:07:33.631Z,62.10
2017-03-13T00:08:25.541Z,62.47
2017-03-13T00:09:32.548Z,62.24
2017-03-13T00:10:29.915Z,61.57
2017-03-13T00:11:24.665Z,61.69
2017-03-13T00:12:33.939Z,61.51
2017-03-13T00:13:37.755Z,61.20
2017-03-13T00:14:38.904Z,61.83
2017-03-13T00:15:30.015Z,61.95
2017-03-13T00:16:28.185Z,62.07
2017-03-13T00:17:28.769Z,62.25
2017-03-13T00:18:24.876Z,62.06
2017-03-13T00:19:25.859Z,62.32
2017-03-13T00:20:33.293Z,62.39
2017-03-13T00:21:24.583Z,62.54
2017-03-13T00:22:28.599Z,62.64
2017-03-13T00:23:29.273Z,61.34
2017-03-13T00:24:24.094Z,62.56
2017-03-13T00:25:32.310Z,61.78
2017-03-13T00:26:32.446Z,62.62
2017-03-13T00:27:37.555Z,61.90
2017-03-13T00:28:32.243Z,62.31
2017-03-13T00:29:23.079Z,62.15
2017-03-13T00:30:33.540Z,62.63
2017-03-13T00:31:29.012Z,62.98
2017-03-13T00:32:32.091Z,62.56
2017-03-13T00:33:35.102Z,62.78
2017-03-13T00:34:32.250Z,62.82
2017-03-13T00:35:37.968Z,62.04
2017-03-13T00:36:33.272Z,62.44
2017-03-13T00:37:28.268Z,62.43
2017-03-13T00:38:28.780Z,62.01
2017-03-13T00:39:22.358Z,62.28
2017-03-13T00:40:32.339Z,62.85
2017-03-13T00:41:24.508Z,62.31
2017-03-13T00:42:31.061Z,62.23
2017-03-13T00:43:32.222Z,62.78
2017-03-13T00:44:37.469Z,63.22
2017-03-13T00:45:26.248Z,62.99
2017-03-13T00:46:38.290Z,62.20
2017-03-13T00:47:24.837Z,63.54
2017-03-13T00:48:37.992Z,63.15
2017-03-13T00:49:33.080Z,64.01
2017-03-13T00:50:32.167Z,63.35
2017-03-13T00:51:37.135Z,63.93
2017-03-13T00:52:30.170Z,62.53
2017-03-13T00:53:34.512Z,63.33
2017-03-13T00:54:25.279Z,63.08
2017-03-13T00:55:24.828Z,62.40
2017-03-13T00:56:37.133Z,63.28
2017-03-13T00:58:28.134Z,62.70
2017-03-13T00:59:32.370Z,62.95
2017-03-13T01:00:26.855Z,62.72
2017-03-13T01:01:38.690Z,63.09
2017-03-13T01:02:38.779Z,63.85
2017-03-13T01:03:43.741Z,63.03
2017-03-13T01:04:33.580Z,62.76
2017-03-13T01:05:38.051Z,63.03
2017-03-13T01:06:39.045Z,63.51
2017-03-13T01:07:37.772Z,63.43
2017-03-13T01:08:43.009Z,63.70
2017-03-13T01:09:28.217Z,63.77
2017-03-13T01:10:43.728Z,64.06
2017-03-13T01:11:43.004Z,63.40
2017-03-13T01:12:33.012Z,63.55
2017-03-13T01:13:33.324Z,63.26
2017-03-13T01:14:29.954Z,63.82
2017-03-13T01:15:36.318Z,64.17
2017-03-13T01:16:37.992Z,64.23
2017-03-13T01:17:38.539Z,64.08
2017-03-13T01:18:43.999Z,64.99
2017-03-13T01:19:32.848Z,64.37
2017-03-13T01:20:29.795Z,64.69
2017-03-13T01:21:28.695Z,64.24
2017-03-13T01:23:33.398Z,64.55
2017-03-13T01:24:33.079Z,64.84
2017-03-13T01:25:34.560Z,64.95
2017-03-13T01:26:44.184Z,64.46
2017-03-13T01:27:33.008Z,64.66
2017-03-13T01:28:38.156Z,64.53
2017-03-13T01:30:29.156Z,63.83
2017-03-13T01:31:31.675Z,64.60
2017-03-13T01:32:28.541Z,64.28
2017-03-13T01:33:30.443Z,64.20
2017-03-13T01:35:31.528Z,64.55
2017-03-13T01:36:36.170Z,64.35
2017-03-13T01:37:32.575Z,64.16
2017-03-13T01:38:33.646Z,63.85
2017-03-13T01:39:33.013Z,64.62
2017-03-13T01:40:33.107Z,64.75
2017-03-13T01:41:36.933Z,66.23
2017-03-13T01:42:29.185Z,65.25
2017-03-13T01:43:26.591Z,64.74
2017-03-13T01:44:33.871Z,64.83
2017-03-13T01:45:23.741Z,66.31
2017-03-13T01:46:33.388Z,65.30
2017-03-13T01:47:38.088Z,65.14
2017-03-13T01:48:37.334Z,65.36
2017-03-13T01:49:37.838Z,64.42
2017-03-13T01:50:33.316Z,63.78
2017-03-13T01:51:38.029Z,65.64
2017-03-13T01:52:37.070Z,65.47
2017-03-13T01:53:26.139Z,64.72
2017-03-13T01:54:28.694Z,64.23
2017-03-13T01:55:33.854Z,64.50
2017-03-13T01:56:43.342Z,64.51
2017-03-13T01:57:26.318Z,64.88
2017-03-13T01:58:33.432Z,64.99
2017-03-13T01:59:33.205Z,64.68
2017-03-13T02:00:27.986Z,64.48
2017-03-13T02:01:29.479Z,64.01
2017-03-13T02:02:38.233Z,64.22
2017-03-13T02:03:33.734Z,64.42
2017-03-13T02:04:28.724Z,64.46
2017-03-13T02:05:28.436Z,64.87
2017-03-13T02:06:28.778Z,64.95
2017-03-13T02:07:26.317Z,65.18
2017-03-13T02:08:29.732Z,65.24
2017-03-13T02:09:38.751Z,64.74
2017-03-13T02:10:25.898Z,64.62
2017-03-13T02:11:28.257Z,64.83
2017-03-13T02:12:28.554Z,64.44
2017-03-13T02:13:27.963Z,64.65
2017-03-13T02:14:37.390Z,65.07
2017-03-13T02:15:33.511Z,65.10
2017-03-13T02:16:28.019Z,65.06
2017-03-13T02:17:32.212Z,65.02
2017-03-13T02:18:33.445Z,65.50
2017-03-13T02:19:25.446Z,64.68
2017-03-13T02:20:33.350Z,64.73
2017-03-13T02:21:27.986Z,64.76
2017-03-13T02:22:28.115Z,65.31
2017-03-13T02:23:37.840Z,65.65
2017-03-13T02:24:37.951Z,64.74
2017-03-13T02:26:42.120Z,66.24
2017-03-13T02:27:36.745Z,67.46
2017-03-13T02:28:26.971Z,67.09
2017-03-13T02:29:32.611Z,67.42
2017-03-13T02:30:28.355Z,67.04
2017-03-13T02:31:33.859Z,65.45
2017-03-13T02:32:38.077Z,65.30
2017-03-13T02:33:28.568Z,65.55
2017-03-13T02:34:33.130Z,65.47
2017-03-13T02:35:33.439Z,66.38
2017-03-13T02:36:33.655Z,66.55
2017-03-13T02:37:38.152Z,65.36
2017-03-13T02:38:47.191Z,65.72
2017-03-13T02:39:32.906Z,65.37
2017-03-13T02:40:33.940Z,65.17
2017-03-13T02:41:44.479Z,65.93
2017-03-13T02:42:39.587Z,66.08
2017-03-13T02:43:39.757Z,66.00
2017-03-13T02:44:34.149Z,65.28
2017-03-13T02:45:32.800Z,65.39
2017-03-13T02:46:42.789Z,64.76
2017-03-13T02:47:41.997Z,65.31
2017-03-13T02:48:32.976Z,65.04
2017-03-13T02:49:33.107Z,64.38
2017-03-13T02:50:43.306Z,64.38
2017-03-13T02:51:33.418Z,64.75
2017-03-13T02:52:38.580Z,66.04
2017-03-13T02:53:32.567Z,65.04
2017-03-13T02:54:32.764Z,64.74
2017-03-13T02:55:44.130Z,64.78
2017-03-13T02:56:32.303Z,64.43
2017-03-13T02:57:38.149Z,65.28
2017-03-13T02:58:39.131Z,65.11
2017-03-13T02:59:38.508Z,66.18
2017-03-13T03:00:32.671Z,65.36
2017-03-13T03:01:28.512Z,64.79
2017-03-13T03:02:37.940Z,65.24
2017-03-13T03:03:33.050Z,65.26
2017-03-13T03:04:42.167Z,66.08
2017-03-13T03:05:32.299Z,65.46
2017-03-13T03:06:32.181Z,65.64
2017-03-13T03:07:24.301Z,65.59
2017-03-13T03:08:38.721Z,64.49
2017-03-13T03:09:28.268Z,66.14
2017-03-13T03:10:28.309Z,66.11
2017-03-13T03:11:31.649Z,65.04
2017-03-13T03:12:33.224Z,64.66
2017-03-13T03:14:28.720Z,64.81
2017-03-13T03:15:27.593Z,64.73
2017-03-13T03:16:25.414Z,64.86
2017-03-13T03:17:32.546Z,64.95
2017-03-13T03:18:38.301Z,64.80
2017-03-13T03:19:38.114Z,65.93
2017-03-13T03:20:31.587Z,65.25
2017-03-13T03:21:32.848Z,64.87
2017-03-13T03:22:27.139Z,65.08
2017-03-13T03:23:37.531Z,65.30
2017-03-13T03:24:32.297Z,65.93
2017-03-13T03:25:32.353Z,65.46
2017-03-13T03:26:38.202Z,64.85
2017-03-13T03:27:24.094Z,65.96
2017-03-13T03:28:32.167Z,65.95
2017-03-13T03:29:32.507Z,65.52
2017-03-13T03:30:37.631Z,65.69
2017-03-13T03:31:37.117Z,65.22
2017-03-13T03:32:24.436Z,65.83
2017-03-13T03:33:25.967Z,66.04
2017-03-13T03:34:44.946Z,65.14
2017-03-13T03:35:28.144Z,64.93
2017-03-13T03:36:33.440Z,64.83
2017-03-13T03:37:33.538Z,64.58
2017-03-13T03:39:37.158Z,65.19
2017-03-13T03:40:37.154Z,64.96
2017-03-13T03:41:37.309Z,64.96
2017-03-13T03:42:24.399Z,65.14
2017-03-13T03:43:29.413Z,64.99
2017-03-13T03:44:39.866Z,65.33
2017-03-13T03:46:33.395Z,65.62
2017-03-13T03:47:26.967Z,65.14
2017-03-13T03:48:24.524Z,65.22
2017-03-13T03:49:38.237Z,65.00
2017-03-13T03:50:37.340Z,65.19
2017-03-13T03:51:28.427Z,65.47
2017-03-13T03:52:39.277Z,66.33
2017-03-13T03:53:29.444Z,65.89
2017-03-13T03:54:28.997Z,65.57
2017-03-13T03:55:28.146Z,66.87
2017-03-13T03:56:28.223Z,67.60
2017-03-13T03:57:33.580Z,67.22
2017-03-13T03:58:28.454Z,67.12
2017-03-13T03:59:29.186Z,68.30
2017-03-13T04:00:25.075Z,68.47
2017-03-13T04:01:32.464Z,67.78
2017-03-13T04:02:42.836Z,68.60
2017-03-13T04:03:38.702Z,67.87
2017-03-13T04:04:35.610Z,68.13
2017-03-13T04:05:38.197Z,67.74
2017-03-13T04:06:39.180Z,66.92
2017-03-13T04:07:38.858Z,68.32
2017-03-13T04:08:34.315Z,67.24
2017-03-13T04:09:38.888Z,68.60
2017-03-13T04:10:34.008Z,67.51
2017-03-13T04:11:38.200Z,66.63
2017-03-13T04:12:28.556Z,66.33
2017-03-13T04:13:37.755Z,66.64
2017-03-13T04:14:29.378Z,66.80
2017-03-13T04:15:45.367Z,65.95
2017-03-13T04:16:33.628Z,67.66
2017-03-13T04:17:43.007Z,68.12
2017-03-13T04:18:36.322Z,66.67
2017-03-13T04:19:43.880Z,68.01
2017-03-13T04:20:38.738Z,67.76
2017-03-13T04:21:43.723Z,66.62
2017-03-13T04:22:33.918Z,66.21
2017-03-13T04:24:38.013Z,65.75
2017-03-13T04:25:35.021Z,65.85
2017-03-13T04:26:49.026Z,65.96
2017-03-13T04:27:28.302Z,66.58
2017-03-13T04:28:44.260Z,66.96
2017-03-13T04:29:29.182Z,66.58
2017-03-13T04:30:39.012Z,66.73
2017-03-13T04:31:43.563Z,66.32
2017-03-13T04:32:42.591Z,66.17
2017-03-13T04:33:23.205Z,66.55
2017-03-13T04:34:32.359Z,65.95
2017-03-13T04:35:37.575Z,66.09
2017-03-13T04:36:32.280Z,66.03
2017-03-13T04:37:33.346Z,65.77
2017-03-13T04:38:20.910Z,65.83
2017-03-13T04:39:40.017Z,67.07
2017-03-13T04:40:28.572Z,66.75
2017-03-13T04:41:38.024Z,67.51
2017-03-13T04:42:28.173Z,67.72
2017-03-13T04:43:33.428Z,66.81
2017-03-13T04:44:32.617Z,66.53
2017-03-13T04:45:32.656Z,66.35
2017-03-13T04:46:33.060Z,66.20
2017-03-13T04:47:28.303Z,66.05
2017-03-13T04:48:31.970Z,66.88
2017-03-13T04:49:48.592Z,65.91
2017-03-13T04:50:28.332Z,65.55
2017-03-13T04:51:32.504Z,65.93
2017-03-13T04:52:32.610Z,66.35
2017-03-13T04:53:32.080Z,66.48
2017-03-13T04:54:33.223Z,66.12
2017-03-13T04:56:38.853Z,65.95
2017-03-13T04:57:23.965Z,65.68
2017-03-13T05:00:37.479Z,65.80
2017-03-13T05:01:37.356Z,65.64
2017-03-13T05:02:32.486Z,66.50
2017-03-13T05:03:28.153Z,66.42
2017-03-13T05:04:32.278Z,65.58
2017-03-13T05:05:37.523Z,65.81
2017-03-13T05:07:24.066Z,65.83
2017-03-13T05:08:32.303Z,65.41
2017-03-13T05:09:25.211Z,65.69
2017-03-13T05:10:27.026Z,66.31
2017-03-13T05:11:37.984Z,66.39
2017-03-13T05:12:37.573Z,66.55
2017-03-13T05:13:38.565Z,66.90
2017-03-13T05:15:32.795Z,66.82
2017-03-13T05:16:32.220Z,66.15
2017-03-13T05:17:25.435Z,66.90
2017-03-13T05:18:25.548Z,66.46
2017-03-13T05:19:32.428Z,66.79
2017-03-13T05:20:25.443Z,66.97
2017-03-13T05:21:25.094Z,67.28
2017-03-13T05:22:24.256Z,67.71
2017-03-13T05:24:27.906Z,66.87
2017-03-13T05:25:36.100Z,66.96
2017-03-13T05:26:25.102Z,67.05
2017-03-13T05:27:37.813Z,66.93
2017-03-13T05:28:33.276Z,67.01
2017-03-13T05:30:25.554Z,65.66
2017-03-13T05:31:39.464Z,65.92
2017-03-13T05:32:29.871Z,67.45
2017-03-13T05:33:43.555Z,68.50
2017-03-13T05:34:37.686Z,67.26
2017-03-13T05:35:32.205Z,67.09
2017-03-13T05:36:38.640Z,66.87
2017-03-13T05:38:45.584Z,66.51
2017-03-13T05:39:31.240Z,66.51
2017-03-13T05:40:33.058Z,66.21
2017-03-13T05:43:39.214Z,67.43
2017-03-13T05:44:45.666Z,66.83
2017-03-13T05:45:43.149Z,67.01
2017-03-13T05:47:38.983Z,68.10
2017-03-13T05:48:28.108Z,68.43
2017-03-13T05:50:35.461Z,68.26
2017-03-13T05:52:43.178Z,66.93
2017-03-13T05:53:32.901Z,66.18
2017-03-13T05:54:44.512Z,66.72
2017-03-13T05:55:25.380Z,66.71
2017-03-13T05:56:31.689Z,66.52
2017-03-13T05:57:27.651Z,66.87
2017-03-13T05:59:35.190Z,67.20
2017-03-13T06:02:18.695Z,66.53
2017-03-13T06:05:34.056Z,66.51
2017-03-13T06:06:33.002Z,66.98
2017-03-13T06:07:28.158Z,67.65
2017-03-13T06:08:23.828Z,67.36
2017-03-13T06:09:37.481Z,66.07
2017-03-13T06:10:32.404Z,66.30
2017-03-13T06:12:30.821Z,66.67
2017-03-13T06:14:44.489Z,66.77
2017-03-13T06:17:23.713Z,66.63
2017-03-13T06:18:28.227Z,66.28
2017-03-13T06:19:52.499Z,66.50
2017-03-13T06:20:32.639Z,66.52
2017-03-13T06:23:26.353Z,66.71
2017-03-13T06:24:32.072Z,66.20
2017-03-13T06:25:32.220Z,65.97
2017-03-13T06:26:29.884Z,66.32
2017-03-13T06:27:38.325Z,66.48
2017-03-13T06:30:29.682Z,65.56
2017-03-13T06:31:32.425Z,65.60
2017-03-13T06:34:32.912Z,66.59
2017-03-13T06:35:29.979Z,66.66
2017-03-13T06:38:33.254Z,66.24
2017-03-13T06:40:49.292Z,65.65
2017-03-13T06:43:37.936Z,64.54
2017-03-13T06:44:42.450Z,65.30
2017-03-13T06:45:26.383Z,65.38
2017-03-13T06:49:24.475Z,65.94
2017-03-13T06:50:28.136Z,65.67
2017-03-13T06:51:28.174Z,65.73
2017-03-13T06:52:28.195Z,65.38
2017-03-13T06:53:32.291Z,65.68
2017-03-13T06:54:38.141Z,65.16
2017-03-13T06:55:43.324Z,64.01
2017-03-13T06:57:28.142Z,64.22
2017-03-13T06:58:32.222Z,64.70
2017-03-13T07:00:32.254Z,65.11
2017-03-13T07:01:33.145Z,64.65
2017-03-13T07:02:27.501Z,64.44
2017-03-13T07:03:24.338Z,64.16
2017-03-13T07:04:28.415Z,64.48
2017-03-13T07:05:32.646Z,63.95
2017-03-13T07:06:38.564Z,63.45
2017-03-13T07:07:33.157Z,62.89
2017-03-13T07:08:38.459Z,63.75
2017-03-13T07:09:32.636Z,63.71
2017-03-13T07:10:24.370Z,64.29
2017-03-13T07:11:33.517Z,64.20
2017-03-13T07:12:33.577Z,63.84
2017-03-13T07:13:37.883Z,64.13
2017-03-13T07:14:26.000Z,63.58
2017-03-13T07:15:32.495Z,63.68
2017-03-13T07:16:31.164Z,63.51
2017-03-13T07:17:33.328Z,64.14
2017-03-13T07:18:49.471Z,63.97
2017-03-13T07:19:28.112Z,64.55
2017-03-13T07:20:26.808Z,63.46
2017-03-13T07:21:32.293Z,63.91
2017-03-13T07:22:28.402Z,63.73
2017-03-13T07:23:34.061Z,63.02
2017-03-13T07:24:26.243Z,64.01
2017-03-13T07:25:33.409Z,64.07
2017-03-13T07:26:39.571Z,64.35
2017-03-13T07:27:32.438Z,64.31
2017-03-13T07:28:25.584Z,63.99
2017-03-13T07:29:33.537Z,63.36
2017-03-13T07:30:33.906Z,64.17
2017-03-13T07:31:32.682Z,63.95
2017-03-13T07:32:28.086Z,63.46
2017-03-13T07:33:33.312Z,63.99
2017-03-13T07:34:33.806Z,63.90
2017-03-13T07:35:36.929Z,63.62
2017-03-13T07:36:37.346Z,63.00
2017-03-13T07:37:38.361Z,63.28
2017-03-13T07:38:33.188Z,62.50
2017-03-13T07:39:33.599Z,63.02
2017-03-13T07:40:18.151Z,64.14
2017-03-13T07:41:37.723Z,62.91
2017-03-13T07:42:30.573Z,63.83
2017-03-13T07:43:48.607Z,64.14
2017-03-13T07:44:31.671Z,64.72
2017-03-13T07:45:31.319Z,64.84
2017-03-13T07:46:25.368Z,64.61
2017-03-13T07:47:33.608Z,64.42
2017-03-13T07:48:29.459Z,64.41
2017-03-13T07:49:28.181Z,63.98
2017-03-13T07:50:32.144Z,64.29
2017-03-13T07:51:33.722Z,64.69
2017-03-13T07:52:39.112Z,64.99
2017-03-13T07:53:28.326Z,65.13
2017-03-13T07:54:33.801Z,64.44
2017-03-13T07:55:26.448Z,64.30
2017-03-13T07:56:23.267Z,64.14
2017-03-13T07:57:34.234Z,64.62
2017-03-13T07:58:28.482Z,63.51
2017-03-13T07:59:32.710Z,63.86
2017-03-13T08:00:37.159Z,64.03
2017-03-13T08:01:42.362Z,65.28
2017-03-13T08:02:28.908Z,65.48
2017-03-13T08:03:24.055Z,64.58
2017-03-13T08:04:28.899Z,64.91
2017-03-13T08:05:32.184Z,64.31
2017-03-13T08:06:26.462Z,64.22
2017-03-13T08:07:39.652Z,63.73
2017-03-13T08:08:33.041Z,64.11
2017-03-13T08:09:38.293Z,63.92
2017-03-13T08:10:37.705Z,64.85
2017-03-13T08:11:31.813Z,64.79
2017-03-13T08:12:28.491Z,64.53
2017-03-13T08:13:32.609Z,65.22
2017-03-13T08:14:37.559Z,65.36
2017-03-13T08:15:38.129Z,65.09
2017-03-13T08:16:26.728Z,64.68
2017-03-13T08:17:28.440Z,65.15
2017-03-13T08:18:33.882Z,64.61
2017-03-13T08:19:28.495Z,64.88
2017-03-13T08:20:38.845Z,64.19
2017-03-13T08:21:34.923Z,65.28
2017-03-13T08:22:29.934Z,64.96
2017-03-13T08:23:43.465Z,64.87
2017-03-13T08:24:43.224Z,64.85
2017-03-13T08:25:29.656Z,64.56
2017-03-13T08:26:28.867Z,64.87
2017-03-13T08:27:24.948Z,65.91
2017-03-13T08:28:34.281Z,65.88
2017-03-13T08:29:29.972Z,64.54
2017-03-13T08:30:39.286Z,64.49
2017-03-13T08:31:25.391Z,64.72
2017-03-13T08:32:38.561Z,63.28
2017-03-13T08:33:38.068Z,63.75
2017-03-13T08:34:39.301Z,63.54
2017-03-13T08:35:43.465Z,64.25
2017-03-13T08:36:28.486Z,63.21
2017-03-13T08:37:32.441Z,63.29
2017-03-13T08:38:25.464Z,63.14
2017-03-13T08:39:27.483Z,63.29
2017-03-13T08:40:33.612Z,63.92
2017-03-13T08:41:32.721Z,64.17
2017-03-13T08:42:24.975Z,63.87
2017-03-13T08:43:34.344Z,63.84
2017-03-13T08:44:31.950Z,64.13
2017-03-13T08:45:28.131Z,62.91
2017-03-13T08:46:32.427Z,63.16
2017-03-13T08:47:32.513Z,62.36
2017-03-13T08:48:28.535Z,63.47
2017-03-13T08:49:32.110Z,62.03
2017-03-13T08:50:39.139Z,61.98
2017-03-13T08:51:40.716Z,62.41
2017-03-13T08:52:28.039Z,61.95
2017-03-13T08:53:32.633Z,61.12
2017-03-13T08:54:43.639Z,61.40
2017-03-13T08:55:28.281Z,61.67
2017-03-13T08:56:37.571Z,62.34
2017-03-13T08:57:28.127Z,61.34
2017-03-13T08:58:32.450Z,61.80
2017-03-13T08:59:28.853Z,61.37
2017-03-13T09:00:37.367Z,62.01
2017-03-13T09:01:26.056Z,62.37
2017-03-13T09:02:31.512Z,62.58
2017-03-13T09:03:39.559Z,62.79
2017-03-13T09:04:39.055Z,62.90
2017-03-13T09:05:28.839Z,63.16
2017-03-13T09:06:37.522Z,62.61
2017-03-13T09:07:29.835Z,63.35
2017-03-13T09:08:25.165Z,62.54
2017-03-13T09:09:32.609Z,62.67
2017-03-13T09:10:37.724Z,62.85
2017-03-13T09:11:32.230Z,62.90
2017-03-13T09:12:25.347Z,62.78
2017-03-13T09:13:25.282Z,63.20
2017-03-13T09:14:38.041Z,62.95
2017-03-13T09:15:31.668Z,63.39
2017-03-13T09:16:28.288Z,63.09
2017-03-13T09:17:42.428Z,63.13
2017-03-13T09:18:38.514Z,63.20
2017-03-13T09:19:23.330Z,62.98
2017-03-13T09:20:38.064Z,62.71
2017-03-13T09:21:38.839Z,63.52
2017-03-13T09:22:24.971Z,63.69
2017-03-13T09:23:24.462Z,63.04
2017-03-13T09:24:59.236Z,63.02
2017-03-13T09:25:31.576Z,63.14
2017-03-13T09:26:37.700Z,62.66
2017-03-13T09:27:27.480Z,62.86
2017-03-13T09:28:32.602Z,62.55
2017-03-13T09:29:24.949Z,61.87
2017-03-13T09:30:28.206Z,62.94
2017-03-13T09:31:37.474Z,63.03
2017-03-13T09:32:37.655Z,62.65
2017-03-13T09:33:34.293Z,62.74
2017-03-13T09:34:25.153Z,63.04
2017-03-13T09:35:32.251Z,63.51
2017-03-13T09:36:26.335Z,63.40
2017-03-13T09:37:25.765Z,62.81
2017-03-13T09:38:32.934Z,62.19
2017-03-13T09:39:37.129Z,62.46
2017-03-13T09:40:31.961Z,62.11
2017-03-13T09:41:18.475Z,61.50
2017-03-13T09:42:54.504Z,61.38
2017-03-13T09:43:48.933Z,61.75
2017-03-13T09:44:43.872Z,61.86
2017-03-13T09:45:38.115Z,61.67
2017-03-13T09:46:32.292Z,61.42
2017-03-13T09:47:33.570Z,61.56
2017-03-13T09:48:28.151Z,60.97
2017-03-13T09:49:33.752Z,60.87
2017-03-13T09:50:24.988Z,61.00
2017-03-13T09:51:36.853Z,61.09
2017-03-13T09:52:32.073Z,60.38
2017-03-13T09:53:26.769Z,60.25
2017-03-13T09:54:29.488Z,60.29
2017-03-13T09:55:29.258Z,60.62
2017-03-13T09:56:32.298Z,60.23
2017-03-13T09:57:34.382Z,59.47
2017-03-13T09:58:32.628Z,59.31
2017-03-13T09:59:41.824Z,58.81
2017-03-13T10:00:28.017Z,58.59
2017-03-13T10:01:38.161Z,59.07
2017-03-13T10:02:31.992Z,58.53
2017-03-13T10:03:28.273Z,58.84
2017-03-13T10:04:29.646Z,60.63
2017-03-13T10:05:28.934Z,58.14
2017-03-13T10:06:32.030Z,57.76
2017-03-13T10:07:38.360Z,57.40
2017-03-13T10:08:27.996Z,57.80
2017-03-13T10:09:32.865Z,57.85
2017-03-13T10:10:30.997Z,57.56
2017-03-13T10:11:28.288Z,57.32
2017-03-13T10:12:32.343Z,57.66
2017-03-13T10:13:32.539Z,57.53
2017-03-13T10:14:32.634Z,58.04
2017-03-13T10:15:37.995Z,57.73
2017-03-13T10:16:33.418Z,57.40
2017-03-13T10:17:39.219Z,57.35
2017-03-13T10:18:25.028Z,56.74
2017-03-13T10:19:33.665Z,57.20
2017-03-13T10:20:38.783Z,57.61
2017-03-13T10:21:27.975Z,57.52
2017-03-13T10:22:33.878Z,57.12
2017-03-13T10:23:32.619Z,57.09
2017-03-13T10:24:38.003Z,57.06
2017-03-13T10:25:32.444Z,56.87
2017-03-13T10:26:38.600Z,57.71
2017-03-13T10:27:32.423Z,58.32
2017-03-13T10:28:32.844Z,58.27
2017-03-13T10:29:24.982Z,58.35
2017-03-13T10:30:32.053Z,57.86
2017-03-13T10:31:28.653Z,57.69
2017-03-13T10:32:27.977Z,58.82
2017-03-13T10:33:32.431Z,58.55
2017-03-13T10:34:24.797Z,57.58
2017-03-13T10:35:32.169Z,58.61
2017-03-13T10:36:26.258Z,59.32
2017-03-13T10:37:29.995Z,58.33
2017-03-13T10:38:26.901Z,57.83
2017-03-13T10:39:32.340Z,57.35
2017-03-13T10:40:38.330Z,57.33
2017-03-13T10:41:28.058Z,57.55
2017-03-13T10:42:28.256Z,57.23
2017-03-13T10:43:38.275Z,56.72
2017-03-13T10:44:33.818Z,56.32
2017-03-13T10:45:37.912Z,56.16
2017-03-13T10:46:28.232Z,56.13
2017-03-13T10:47:33.411Z,55.91
2017-03-13T10:48:37.314Z,55.87
2017-03-13T10:49:33.367Z,55.89
2017-03-13T10:50:33.132Z,56.15
2017-03-13T10:51:32.305Z,57.23
2017-03-13T10:52:32.662Z,56.38
2017-03-13T10:53:33.821Z,56.37
2017-03-13T10:54:24.132Z,55.97
2017-03-13T10:55:25.151Z,55.89
2017-03-13T10:56:38.232Z,56.34
2017-03-13T10:57:24.373Z,56.47
2017-03-13T10:58:37.960Z,58.30
2017-03-13T10:59:37.361Z,58.00
2017-03-13T11:00:32.338Z,56.71
2017-03-13T11:01:32.464Z,56.76
2017-03-13T11:02:19.264Z,57.28
2017-03-13T11:03:26.055Z,56.92
2017-03-13T11:04:32.156Z,56.09
2017-03-13T11:05:24.115Z,56.02
2017-03-13T11:06:33.048Z,55.57
2017-03-13T11:07:38.423Z,57.13
2017-03-13T11:08:32.346Z,56.82
2017-03-13T11:09:42.832Z,57.43
2017-03-13T11:10:32.051Z,56.56
2017-03-13T11:11:37.068Z,55.24
2017-03-13T11:12:27.162Z,54.81
2017-03-13T11:13:24.575Z,54.29
2017-03-13T11:14:19.554Z,54.43
2017-03-13T11:15:14.157Z,55.34
2017-03-13T11:16:17.926Z,55.86
2017-03-13T11:17:34.384Z,55.87
2017-03-13T11:18:32.507Z,55.63
2017-03-13T11:19:38.778Z,55.54
2017-03-13T11:20:33.856Z,55.08
2017-03-13T11:21:28.248Z,55.34
2017-03-13T11:22:32.588Z,53.87
2017-03-13T11:23:33.987Z,55.24
2017-03-13T11:24:38.146Z,53.66
2017-03-13T11:25:25.224Z,53.83
2017-03-13T11:26:32.068Z,53.62
2017-03-13T11:27:32.288Z,54.86
2017-03-13T11:28:34.382Z,53.63
2017-03-13T11:29:37.592Z,54.41
2017-03-13T11:30:42.580Z,54.05
2017-03-13T11:31:32.720Z,53.12
2017-03-13T11:32:37.930Z,53.14
2017-03-13T11:33:37.492Z,53.16
2017-03-13T11:34:33.137Z,53.97
2017-03-13T11:35:25.153Z,54.30
2017-03-13T11:36:32.518Z,55.05
2017-03-13T11:37:32.914Z,55.61
2017-03-13T11:38:34.273Z,54.84
2017-03-13T11:39:33.965Z,54.82
2017-03-13T11:40:24.673Z,54.86
2017-03-13T11:41:33.675Z,55.83
2017-03-13T11:42:25.675Z,54.42
2017-03-13T11:43:42.589Z,54.22
2017-03-13T11:44:32.291Z,55.01
2017-03-13T11:45:33.032Z,54.49
2017-03-13T11:46:32.102Z,53.07
2017-03-13T11:47:32.603Z,52.56
2017-03-13T11:48:38.440Z,52.48
2017-03-13T11:49:33.649Z,52.87
2017-03-13T11:50:29.724Z,52.86
2017-03-13T11:51:32.877Z,53.80
2017-03-13T11:52:32.466Z,53.72
2017-03-13T11:53:33.350Z,53.72
2017-03-13T11:54:32.521Z,52.34
2017-03-13T11:55:37.912Z,52.40
2017-03-13T11:56:33.027Z,52.10
2017-03-13T11:57:28.534Z,51.53
2017-03-13T11:58:33.006Z,51.39
2017-03-13T11:59:32.685Z,51.33
2017-03-13T12:00:27.427Z,51.90
2017-03-13T12:01:28.677Z,53.04
2017-03-13T12:02:23.750Z,54.23
2017-03-13T12:03:32.840Z,54.27
2017-03-13T12:04:30.029Z,53.27
2017-03-13T12:05:38.144Z,53.32
2017-03-13T12:06:32.205Z,52.08
2017-03-13T12:07:43.725Z,51.92
2017-03-13T12:08:33.837Z,51.70
2017-03-13T12:09:32.547Z,51.47
2017-03-13T12:10:32.488Z,53.03
2017-03-13T12:11:37.589Z,52.05
2017-03-13T12:12:32.690Z,51.99
2017-03-13T12:13:29.867Z,53.16
2017-03-13T12:14:32.449Z,52.71
2017-03-13T12:15:28.577Z,51.07
2017-03-13T12:16:37.810Z,51.05
2017-03-13T12:17:33.284Z,50.89
2017-03-13T12:18:36.524Z,50.82
2017-03-13T12:19:24.620Z,50.68
2017-03-13T12:20:32.546Z,50.64
2017-03-13T12:21:32.488Z,50.55
2017-03-13T12:22:19.103Z,50.77
2017-03-13T12:23:43.429Z,51.01
2017-03-13T12:24:33.685Z,51.15
2017-03-13T12:25:29.863Z,50.27
2017-03-13T12:26:32.136Z,50.65
2017-03-13T12:27:32.551Z,50.58
2017-03-13T12:28:34.470Z,51.01
2017-03-13T12:29:32.301Z,50.63
2017-03-13T12:30:28.542Z,50.78
2017-03-13T12:31:24.866Z,49.81
2017-03-13T12:32:29.939Z,50.14
2017-03-13T12:33:32.484Z,49.27
2017-03-13T12:34:26.587Z,50.53
2017-03-13T12:35:16.190Z,50.83
2017-03-13T12:36:43.861Z,49.55
2017-03-13T12:37:28.596Z,50.45
2017-03-13T12:38:27.606Z,49.95
2017-03-13T12:39:28.817Z,49.79
2017-03-13T12:40:28.677Z,50.79
2017-03-13T12:41:32.321Z,49.76
2017-03-13T12:42:33.471Z,49.88
2017-03-13T12:43:32.757Z,49.32
2017-03-13T12:44:37.181Z,49.31
2017-03-13T12:45:32.135Z,49.03
2017-03-13T12:46:37.644Z,50.01
2017-03-13T12:47:32.746Z,50.46
2017-03-13T12:48:42.606Z,48.89
2017-03-13T12:49:37.873Z,49.49
2017-03-13T12:50:36.056Z,49.00
2017-03-13T12:54:19.436Z,49.56
2017-03-13T12:54:19.458Z,48.50
2017-03-13T12:54:30.999Z,48.16
2017-03-13T12:55:31.035Z,48.71
2017-03-13T12:56:37.717Z,46.97
2017-03-13T12:57:37.725Z,46.45
2017-03-13T12:58:23.585Z,47.19
2017-03-13T12:59:17.952Z,47.30
2017-03-13T13:00:42.147Z,48.19
2017-03-13T13:01:27.505Z,46.95
2017-03-13T13:02:29.245Z,47.13
2017-03-13T13:03:38.154Z,47.00
2017-03-13T13:04:31.154Z,48.28
2017-03-13T13:05:38.885Z,46.46
2017-03-13T13:06:29.976Z,45.86
2017-03-13T13:07:27.895Z,45.98
2017-03-13T13:08:38.159Z,45.50
2017-03-13T13:09:34.074Z,45.51
2017-03-13T13:10:37.741Z,46.33
2017-03-13T13:11:32.407Z,46.50
2017-03-13T13:12:32.780Z,45.94
2017-03-13T13:13:28.900Z,44.18
2017-03-13T13:14:38.036Z,45.60
2017-03-13T13:15:33.462Z,45.34
2017-03-13T13:16:38.848Z,45.54
2017-03-13T13:17:38.408Z,45.44
2017-03-13T13:18:25.433Z,45.77
2017-03-13T13:19:32.092Z,44.63
2017-03-13T13:20:10.148Z,44.11
2017-03-13T13:21:09.034Z,43.10
2017-03-13T13:22:37.295Z,42.51
2017-03-13T13:23:32.379Z,42.24
2017-03-13T13:24:38.428Z,41.53
2017-03-13T13:25:32.261Z,41.75
2017-03-13T13:26:33.459Z,42.10
2017-03-13T13:27:37.169Z,42.00
2017-03-13T13:28:32.243Z,41.11
2017-03-13T13:29:25.289Z,41.48
2017-03-13T13:30:33.323Z,41.72
2017-03-13T13:31:33.409Z,41.65
2017-03-13T13:32:25.120Z,42.38
2017-03-13T13:33:38.304Z,40.92
2017-03-13T13:34:28.301Z,40.91
2017-03-13T13:35:38.613Z,41.46
2017-03-13T13:36:32.331Z,41.35
2017-03-13T13:37:32.381Z,41.75
2017-03-13T13:38:32.531Z,41.23
2017-03-13T13:39:32.792Z,41.02
2017-03-13T13:40:32.685Z,40.95